createdAt,value
2022-08-22T00:00:43.764Z,0.00
2022-08-22T00:01:43.276Z,0.00
2022-08-22T00:02:43.289Z,0.00
2022-08-22T00:02:45.528Z,0.00
2022-08-22T00:02:47.028Z,0.00
2022-08-22T00:02:49.989Z,0.00
2022-08-22T00:02:55.723Z,0.00
2022-08-22T00:02:57.280Z,8.00
2022-08-22T00:02:59.184Z,0.00
2022-08-22T00:03:00.574Z,0.00
2022-08-22T00:03:01.583Z,0.00
2022-08-22T00:03:09.241Z,0.00
2022-08-22T00:03:43.294Z,0.00
2022-08-22T00:04:43.255Z,0.00
2022-08-22T00:05:43.283Z,0.00
2022-08-22T00:06:43.320Z,0.00
2022-08-22T00:07:43.249Z,0.00
2022-08-22T00:08:43.232Z,0.00
2022-08-22T00:09:43.263Z,0.00
2022-08-22T00:10:43.256Z,0.00
2022-08-22T00:11:43.272Z,0.00
2022-08-22T00:12:43.263Z,0.00
2022-08-22T00:13:43.228Z,0.00
2022-08-22T00:14:43.223Z,0.00
2022-08-22T00:15:44.268Z,0.00
2022-08-22T00:16:43.209Z,0.00
2022-08-22T00:17:43.246Z,0.00
2022-08-22T00:18:43.204Z,0.00
2022-08-22T00:19:43.228Z,0.00
2022-08-22T00:20:43.210Z,0.00
2022-08-22T00:21:43.237Z,0.00
2022-08-22T00:22:43.212Z,0.00
2022-08-22T00:23:43.196Z,0.00
2022-08-22T00:24:43.191Z,0.00
2022-08-22T00:25:43.208Z,0.00
2022-08-22T00:26:45.394Z,0.00
2022-08-22T00:27:45.183Z,0.00
2022-08-22T00:28:43.192Z,0.00
2022-08-22T00:29:43.440Z,0.00
2022-08-22T00:30:43.192Z,0.00
2022-08-22T00:31:43.173Z,0.00
2022-08-22T00:32:43.180Z,0.00
2022-08-22T00:33:43.182Z,0.00
2022-08-22T00:34:43.184Z,0.00
2022-08-22T00:35:45.215Z,0.00
2022-08-22T00:36:43.160Z,0.00
2022-08-22T00:37:43.172Z,0.00
2022-08-22T00:38:43.141Z,0.00
2022-08-22T00:39:43.205Z,0.00
2022-08-22T00:40:43.139Z,0.00
2022-08-22T00:41:43.143Z,0.00
2022-08-22T00:42:43.153Z,0.00
2022-08-22T00:43:43.131Z,0.00
2022-08-22T00:44:43.173Z,0.00
2022-08-22T00:45:43.121Z,0.00
2022-08-22T00:46:43.147Z,0.00
2022-08-22T00:47:43.154Z,0.00
2022-08-22T00:48:43.124Z,0.00
2022-08-22T00:49:43.108Z,0.00
2022-08-22T00:50:43.125Z,0.00
2022-08-22T00:51:43.109Z,0.00
2022-08-22T00:52:43.129Z,0.00
2022-08-22T00:53:43.099Z,0.00
2022-08-22T00:54:43.130Z,0.00
2022-08-22T00:55:43.097Z,0.00
2022-08-22T00:56:45.156Z,0.00
2022-08-22T00:57:43.124Z,0.00
2022-08-22T00:58:43.103Z,0.00
2022-08-22T00:59:43.093Z,0.00
2022-08-22T01:00:43.109Z,0.00
2022-08-22T01:01:43.069Z,0.00
2022-08-22T01:02:43.084Z,0.00
2022-08-22T01:03:43.104Z,0.00
2022-08-22T01:04:43.090Z,0.00
2022-08-22T01:05:43.060Z,0.00
2022-08-22T01:06:43.077Z,0.00
2022-08-22T01:07:43.063Z,0.00
2022-08-22T01:08:43.084Z,0.00
2022-08-22T01:09:43.076Z,0.00
2022-08-22T01:10:43.068Z,0.00
2022-08-22T01:11:43.043Z,0.00
2022-08-22T01:12:43.052Z,0.00
2022-08-22T01:13:43.030Z,0.00
2022-08-22T01:14:43.046Z,0.00
2022-08-22T01:15:43.027Z,0.00
2022-08-22T01:16:43.038Z,0.00
2022-08-22T01:17:43.022Z,0.00
2022-08-22T01:18:43.016Z,0.00
2022-08-22T01:19:43.001Z,0.00
2022-08-22T01:20:43.024Z,0.00
2022-08-22T01:21:42.999Z,0.00
2022-08-22T01:22:42.992Z,0.00
2022-08-22T01:23:43.017Z,0.00
2022-08-22T01:24:42.983Z,0.00
2022-08-22T01:25:42.981Z,0.00
2022-08-22T01:26:44.680Z,0.00
2022-08-22T01:27:43.010Z,0.00
2022-08-22T01:28:42.991Z,0.00
2022-08-22T01:29:42.967Z,0.00
2022-08-22T01:30:42.968Z,0.00
2022-08-22T01:31:42.960Z,0.00
2022-08-22T01:32:42.953Z,0.00
2022-08-22T01:33:42.988Z,0.00
2022-08-22T01:34:42.960Z,0.00
2022-08-22T01:35:42.967Z,0.00
2022-08-22T01:36:42.977Z,0.00
2022-08-22T01:37:43.611Z,0.00
2022-08-22T01:38:42.947Z,0.00
2022-08-22T01:39:42.951Z,0.00
2022-08-22T01:40:53.587Z,0.00
2022-08-22T01:41:42.961Z,0.00
2022-08-22T01:42:42.914Z,0.00
2022-08-22T01:43:51.514Z,0.00
2022-08-22T01:44:42.911Z,0.00
2022-08-22T01:45:42.920Z,0.00
2022-08-22T01:46:42.931Z,0.00
2022-08-22T01:47:42.937Z,0.00
2022-08-22T01:48:42.894Z,0.00
2022-08-22T01:49:42.911Z,0.00
2022-08-22T01:50:42.893Z,0.00
2022-08-22T01:51:42.924Z,0.00
2022-08-22T01:52:42.882Z,0.00
2022-08-22T01:53:42.895Z,0.00
2022-08-22T01:54:42.887Z,0.00
2022-08-22T01:55:42.881Z,0.00
2022-08-22T01:56:42.887Z,0.00
2022-08-22T01:57:42.892Z,0.00
2022-08-22T01:58:42.885Z,0.00
2022-08-22T01:59:42.967Z,0.00
2022-08-22T02:00:42.871Z,0.00
2022-08-22T02:01:42.850Z,0.00
2022-08-22T02:02:42.867Z,0.00
2022-08-22T02:03:42.877Z,0.00
2022-08-22T02:04:42.872Z,0.00
2022-08-22T02:05:42.868Z,0.00
2022-08-22T02:06:42.826Z,0.00
2022-08-22T02:07:42.865Z,0.00
2022-08-22T02:08:42.814Z,0.00
2022-08-22T02:09:42.812Z,0.00
2022-08-22T02:10:42.836Z,0.00
2022-08-22T02:11:42.835Z,0.00
2022-08-22T02:12:42.823Z,0.00
2022-08-22T02:13:42.803Z,0.00
2022-08-22T02:14:42.810Z,0.00
2022-08-22T02:15:43.985Z,0.00
2022-08-22T02:16:42.820Z,0.00
2022-08-22T02:17:42.811Z,0.00
2022-08-22T02:18:42.803Z,0.00
2022-08-22T02:19:42.812Z,0.00
2022-08-22T02:20:42.768Z,0.00
2022-08-22T02:21:42.793Z,0.00
2022-08-22T02:22:44.582Z,0.00
2022-08-22T02:23:42.760Z,0.00
2022-08-22T02:24:42.750Z,0.00
2022-08-22T02:25:42.772Z,0.00
2022-08-22T02:26:42.763Z,0.00
2022-08-22T02:27:42.761Z,0.00
2022-08-22T02:28:56.622Z,0.00
2022-08-22T02:29:42.741Z,0.00
2022-08-22T02:30:42.739Z,0.00
2022-08-22T02:31:42.744Z,0.00
2022-08-22T02:32:42.723Z,0.00
2022-08-22T02:33:42.734Z,0.00
2022-08-22T02:34:42.736Z,0.00
2022-08-22T02:35:42.723Z,0.00
2022-08-22T02:36:42.754Z,0.00
2022-08-22T02:37:42.721Z,0.00
2022-08-22T02:38:42.739Z,0.00
2022-08-22T02:39:42.805Z,0.00
2022-08-22T02:40:42.728Z,0.00
2022-08-22T02:41:42.704Z,0.00
2022-08-22T02:42:42.717Z,0.00
2022-08-22T02:43:42.698Z,0.00
2022-08-22T02:44:42.683Z,0.00
2022-08-22T02:45:42.688Z,0.00
2022-08-22T02:46:42.687Z,0.00
2022-08-22T02:47:42.701Z,0.00
2022-08-22T02:48:42.684Z,0.00
2022-08-22T02:49:43.969Z,0.00
2022-08-22T02:50:42.689Z,0.00
2022-08-22T02:51:42.652Z,0.00
2022-08-22T02:52:42.681Z,0.00
2022-08-22T02:53:42.666Z,0.00
2022-08-22T02:54:42.663Z,0.00
2022-08-22T02:55:42.647Z,0.00
2022-08-22T02:56:42.637Z,0.00
2022-08-22T02:57:42.640Z,0.00
2022-08-22T02:58:42.623Z,0.00
2022-08-22T02:59:42.623Z,0.00
2022-08-22T03:00:42.673Z,0.00
2022-08-22T03:01:42.615Z,0.00
2022-08-22T03:02:42.648Z,0.00
2022-08-22T03:03:42.605Z,0.00
2022-08-22T03:04:42.605Z,0.00
2022-08-22T03:05:42.598Z,0.00
2022-08-22T03:06:42.622Z,0.00
2022-08-22T03:07:42.586Z,0.00
2022-08-22T03:08:47.348Z,0.00
2022-08-22T03:09:42.614Z,0.00
2022-08-22T03:10:42.613Z,0.00
2022-08-22T03:11:42.575Z,0.00
2022-08-22T03:12:42.578Z,0.00
2022-08-22T03:13:42.613Z,0.00
2022-08-22T03:14:42.560Z,0.00
2022-08-22T03:15:43.603Z,0.00
2022-08-22T03:16:42.556Z,0.00
2022-08-22T03:17:42.547Z,0.00
2022-08-22T03:18:42.558Z,0.00
2022-08-22T03:19:42.561Z,0.00
2022-08-22T03:20:42.533Z,0.00
2022-08-22T03:21:42.546Z,0.00
2022-08-22T03:22:42.535Z,0.00
2022-08-22T03:23:42.526Z,0.00
2022-08-22T03:24:42.555Z,0.00
2022-08-22T03:25:42.512Z,0.00
2022-08-22T03:26:42.510Z,0.00
2022-08-22T03:27:42.509Z,0.00
2022-08-22T03:28:52.700Z,0.00
2022-08-22T03:29:42.495Z,0.00
2022-08-22T03:30:42.533Z,0.00
2022-08-22T03:31:42.517Z,0.00
2022-08-22T03:32:42.503Z,0.00
2022-08-22T03:33:42.495Z,0.00
2022-08-22T03:34:42.498Z,0.00
2022-08-22T03:35:42.492Z,0.00
2022-08-22T03:36:42.483Z,0.00
2022-08-22T03:37:42.480Z,0.00
2022-08-22T03:38:42.460Z,0.00
2022-08-22T03:39:42.528Z,0.00
2022-08-22T03:40:42.629Z,0.00
2022-08-22T03:41:42.445Z,0.00
2022-08-22T03:42:42.452Z,0.00
2022-08-22T03:43:42.450Z,0.00
2022-08-22T03:44:42.478Z,0.00
2022-08-22T03:45:42.451Z,0.00
2022-08-22T03:46:42.427Z,0.00
2022-08-22T03:47:42.421Z,0.00
2022-08-22T03:48:42.411Z,0.00
2022-08-22T03:49:42.425Z,0.00
2022-08-22T03:50:42.430Z,0.00
2022-08-22T03:51:42.402Z,0.00
2022-08-22T03:52:42.411Z,0.00
2022-08-22T03:53:42.437Z,0.00
2022-08-22T03:54:42.401Z,0.00
2022-08-22T03:55:42.390Z,0.00
2022-08-22T03:56:42.382Z,0.00
2022-08-22T03:57:42.376Z,0.00
2022-08-22T03:58:42.417Z,0.00
2022-08-22T03:59:42.604Z,0.00
2022-08-22T04:00:42.387Z,0.00
2022-08-22T04:01:42.354Z,0.00
2022-08-22T04:02:44.260Z,0.00
2022-08-22T04:03:42.350Z,0.00
2022-08-22T04:04:42.362Z,0.00
2022-08-22T04:05:42.380Z,4.00
2022-08-22T04:06:42.368Z,4.00
2022-08-22T04:07:42.788Z,0.00
2022-08-22T04:08:43.913Z,4.00
2022-08-22T04:09:42.321Z,4.00
2022-08-22T04:10:42.347Z,4.00
2022-08-22T04:11:42.342Z,8.00
2022-08-22T04:12:42.335Z,4.00
2022-08-22T04:13:42.308Z,8.00
2022-08-22T04:14:42.327Z,8.00
2022-08-22T04:15:42.302Z,12.00
2022-08-22T04:16:42.295Z,12.00
2022-08-22T04:17:42.360Z,12.00
2022-08-22T04:18:42.340Z,16.00
2022-08-22T04:19:42.294Z,20.00
2022-08-22T04:20:42.305Z,20.00
2022-08-22T04:21:42.274Z,28.00
2022-08-22T04:22:42.270Z,28.00
2022-08-22T04:23:42.272Z,32.00
2022-08-22T04:24:42.297Z,36.00
2022-08-22T04:25:42.266Z,40.00
2022-08-22T04:26:42.290Z,44.00
2022-08-22T04:27:42.252Z,52.00
2022-08-22T04:28:42.241Z,56.00
2022-08-22T04:29:42.244Z,60.00
2022-08-22T04:30:42.233Z,68.00
2022-08-22T04:31:42.251Z,72.00
2022-08-22T04:32:42.246Z,76.00
2022-08-22T04:33:42.219Z,84.00
2022-08-22T04:34:42.241Z,92.00
2022-08-22T04:35:42.231Z,100.00
2022-08-22T04:36:42.212Z,104.00
2022-08-22T04:37:42.196Z,112.00
2022-08-22T04:38:42.233Z,124.00
2022-08-22T04:39:42.236Z,128.00
2022-08-22T04:40:42.219Z,136.00
2022-08-22T04:41:42.182Z,144.00
2022-08-22T04:42:42.194Z,152.00
2022-08-22T04:43:42.206Z,164.00
2022-08-22T04:44:42.177Z,172.00
2022-08-22T04:45:42.174Z,180.00
2022-08-22T04:46:42.189Z,188.00
2022-08-22T04:47:42.162Z,200.00
2022-08-22T04:48:42.177Z,212.00
2022-08-22T04:49:42.156Z,224.00
2022-08-22T04:50:43.290Z,236.00
2022-08-22T04:51:42.157Z,244.00
2022-08-22T04:52:42.154Z,256.00
2022-08-22T04:53:42.141Z,268.00
2022-08-22T04:54:42.150Z,276.00
2022-08-22T04:55:42.157Z,284.00
2022-08-22T04:56:42.110Z,296.00
2022-08-22T04:57:42.115Z,304.00
2022-08-22T04:58:42.146Z,312.00
2022-08-22T04:59:42.145Z,320.00
2022-08-22T05:00:42.151Z,328.00
2022-08-22T05:01:42.205Z,332.00
2022-08-22T05:02:42.101Z,344.00
2022-08-22T05:03:44.955Z,352.00
2022-08-22T05:04:42.075Z,356.00
2022-08-22T05:05:42.103Z,360.00
2022-08-22T05:06:42.094Z,368.00
2022-08-22T05:07:42.058Z,372.00
2022-08-22T05:08:42.081Z,376.00
2022-08-22T05:09:42.103Z,376.00
2022-08-22T05:10:42.062Z,388.00
2022-08-22T05:11:42.080Z,400.00
2022-08-22T05:12:42.042Z,420.00
2022-08-22T05:13:42.092Z,436.00
2022-08-22T05:14:42.064Z,448.00
2022-08-22T05:15:42.054Z,464.00
2022-08-22T05:16:42.028Z,484.00
2022-08-22T05:17:42.049Z,508.00
2022-08-22T05:18:42.043Z,528.00
2022-08-22T05:19:42.035Z,552.00
2022-08-22T05:20:42.033Z,568.00
2022-08-22T05:21:42.040Z,588.00
2022-08-22T05:22:42.016Z,600.00
2022-08-22T05:23:42.012Z,620.00
2022-08-22T05:24:42.017Z,632.00
2022-08-22T05:25:41.989Z,644.00
2022-08-22T05:26:41.992Z,656.00
2022-08-22T05:27:41.989Z,668.00
2022-08-22T05:28:41.988Z,680.00
2022-08-22T05:29:41.963Z,688.00
2022-08-22T05:30:41.986Z,696.00
2022-08-22T05:31:41.969Z,704.00
2022-08-22T05:32:41.956Z,712.00
2022-08-22T05:33:41.946Z,724.00
2022-08-22T05:34:41.971Z,736.00
2022-08-22T05:35:43.976Z,748.00
2022-08-22T05:36:41.966Z,760.00
2022-08-22T05:37:41.947Z,772.00
2022-08-22T05:38:41.956Z,780.00
2022-08-22T05:39:41.956Z,788.00
2022-08-22T05:40:41.931Z,800.00
2022-08-22T05:41:41.938Z,812.00
2022-08-22T05:42:41.936Z,820.00
2022-08-22T05:43:41.921Z,832.00
2022-08-22T05:44:41.891Z,840.00
2022-08-22T05:45:41.910Z,852.00
2022-08-22T05:46:41.919Z,860.00
2022-08-22T05:47:41.879Z,868.00
2022-08-22T05:48:41.903Z,876.00
2022-08-22T05:49:41.886Z,888.00
2022-08-22T05:50:41.862Z,896.00
2022-08-22T05:51:41.868Z,904.00
2022-08-22T05:52:41.851Z,912.00
2022-08-22T05:53:41.873Z,928.00
2022-08-22T05:54:41.866Z,936.00
2022-08-22T05:55:41.870Z,952.00
2022-08-22T05:56:41.851Z,956.00
2022-08-22T05:57:41.832Z,968.00
2022-08-22T05:58:41.867Z,976.00
2022-08-22T05:59:41.867Z,984.00
2022-08-22T06:00:41.846Z,996.00
2022-08-22T06:01:41.906Z,1004.00
2022-08-22T06:02:41.833Z,1012.00
2022-08-22T06:03:41.842Z,1020.00
2022-08-22T06:04:41.823Z,1028.00
2022-08-22T06:05:41.817Z,1036.00
2022-08-22T06:06:41.806Z,1048.00
2022-08-22T06:07:41.794Z,1052.00
2022-08-22T06:08:41.785Z,1060.00
2022-08-22T06:09:41.803Z,1068.00
2022-08-22T06:10:41.800Z,1076.00
2022-08-22T06:11:41.773Z,1088.00
2022-08-22T06:12:43.187Z,1100.00
2022-08-22T06:13:41.798Z,1112.00
2022-08-22T06:14:41.775Z,1128.00
2022-08-22T06:15:41.756Z,1144.00
2022-08-22T06:16:47.364Z,1160.00
2022-08-22T06:17:41.784Z,1172.00
2022-08-22T06:18:41.753Z,1184.00
2022-08-22T06:19:41.766Z,1196.00
2022-08-22T06:20:41.733Z,1208.00
2022-08-22T06:21:41.749Z,1224.00
2022-08-22T06:22:41.738Z,1244.00
2022-08-22T06:23:41.729Z,1260.00
2022-08-22T06:24:41.728Z,1280.00
2022-08-22T06:25:41.725Z,1312.00
2022-08-22T06:26:41.729Z,1340.00
2022-08-22T06:27:41.711Z,1380.00
2022-08-22T06:28:54.523Z,1428.00
2022-08-22T06:29:41.712Z,1472.00
2022-08-22T06:30:41.720Z,1512.00
2022-08-22T06:31:41.693Z,1552.00
2022-08-22T06:32:59.280Z,1592.00
2022-08-22T06:33:45.797Z,1640.00
2022-08-22T06:34:41.686Z,1688.00
2022-08-22T06:35:41.668Z,1744.00
2022-08-22T06:36:41.668Z,1796.00
2022-08-22T06:37:41.683Z,1868.00
2022-08-22T06:38:41.665Z,1956.00
2022-08-22T06:39:41.751Z,2040.00
2022-08-22T06:40:41.649Z,2132.00
2022-08-22T06:41:41.658Z,2228.00
2022-08-22T06:42:41.667Z,2340.00
2022-08-22T06:43:41.696Z,2468.00
2022-08-22T06:44:41.647Z,2556.00
2022-08-22T06:45:41.644Z,2640.00
2022-08-22T06:46:41.642Z,2740.00
2022-08-22T06:47:41.630Z,2844.00
2022-08-22T06:48:41.649Z,2928.00
2022-08-22T06:49:41.650Z,3004.00
2022-08-22T06:50:41.610Z,3816.00
2022-08-22T06:51:41.631Z,6136.00
2022-08-22T06:52:41.601Z,8652.00
2022-08-22T06:53:47.833Z,9508.00
2022-08-22T06:54:41.616Z,8548.00
2022-08-22T06:55:41.693Z,7564.00
2022-08-22T06:56:41.581Z,7332.00
2022-08-22T06:57:41.579Z,7140.00
2022-08-22T06:58:41.595Z,6892.00
2022-08-22T06:59:41.586Z,7016.00
2022-08-22T07:00:41.598Z,7168.00
2022-08-22T07:01:41.639Z,7104.00
2022-08-22T07:02:41.607Z,7064.00
2022-08-22T07:03:41.631Z,6856.00
2022-08-22T07:04:41.579Z,6656.00
2022-08-22T07:05:41.572Z,6220.00
2022-08-22T07:06:41.572Z,5528.00
2022-08-22T07:07:41.581Z,4924.00
2022-08-22T07:08:41.553Z,4588.00
2022-08-22T07:09:41.564Z,4384.00
2022-08-22T07:10:41.553Z,4260.00
2022-08-22T07:11:41.574Z,4180.00
2022-08-22T07:12:41.590Z,4152.00
2022-08-22T07:13:41.599Z,4140.00
2022-08-22T07:14:41.607Z,4188.00
2022-08-22T07:15:41.584Z,4268.00
2022-08-22T07:16:41.562Z,4372.00
2022-08-22T07:17:41.554Z,4480.00
2022-08-22T07:18:41.541Z,4568.00
2022-08-22T07:19:41.570Z,4796.00
2022-08-22T07:20:41.526Z,4912.00
2022-08-22T07:21:41.545Z,4964.00
2022-08-22T07:22:41.554Z,4904.00
2022-08-22T07:23:41.520Z,4628.00
2022-08-22T07:24:41.542Z,5132.00
2022-08-22T07:25:41.532Z,4476.00
2022-08-22T07:26:41.554Z,5408.00
2022-08-22T07:27:41.548Z,5172.00
2022-08-22T07:28:41.589Z,4208.00
2022-08-22T07:29:41.584Z,4136.00
2022-08-22T07:30:41.523Z,3956.00
2022-08-22T07:31:41.522Z,3844.00
2022-08-22T07:32:41.582Z,4740.00
2022-08-22T07:33:41.552Z,5628.00
2022-08-22T07:34:41.560Z,5140.00
2022-08-22T07:35:41.559Z,4444.00
2022-08-22T07:36:41.545Z,3764.00
2022-08-22T07:37:41.573Z,4812.00
2022-08-22T07:38:41.512Z,3416.00
2022-08-22T07:39:41.609Z,4176.00
2022-08-22T07:40:41.517Z,5744.00
2022-08-22T07:41:41.511Z,5760.00
2022-08-22T07:42:41.542Z,5712.00
2022-08-22T07:43:41.511Z,5052.00
2022-08-22T07:44:41.537Z,5484.00
2022-08-22T07:45:41.510Z,5608.00
2022-08-22T07:46:41.531Z,5568.00
2022-08-22T07:47:41.547Z,5780.00
2022-08-22T07:49:05.861Z,5816.00
2022-08-22T07:49:45.927Z,5848.00
2022-08-22T07:50:41.569Z,5792.00
2022-08-22T07:51:41.517Z,5828.00
2022-08-22T07:52:41.540Z,5892.00
2022-08-22T07:53:41.569Z,5948.00
2022-08-22T07:54:41.574Z,5992.00
2022-08-22T07:55:48.467Z,6000.00
2022-08-22T07:56:41.562Z,6004.00
2022-08-22T07:57:41.573Z,6012.00
2022-08-22T07:58:41.555Z,6004.00
2022-08-22T07:59:41.561Z,6048.00
2022-08-22T08:00:41.613Z,6208.00
2022-08-22T08:01:41.634Z,6332.00
2022-08-22T08:02:41.543Z,6436.00
2022-08-22T08:03:41.570Z,6396.00
2022-08-22T08:04:41.588Z,6424.00
2022-08-22T08:05:41.568Z,6596.00
2022-08-22T08:06:41.565Z,6232.00
2022-08-22T08:07:41.547Z,4304.00
2022-08-22T08:08:41.551Z,6456.00
2022-08-22T08:09:41.554Z,7412.00
2022-08-22T08:10:41.554Z,5876.00
2022-08-22T08:11:41.567Z,7852.00
2022-08-22T08:12:41.581Z,8216.00
2022-08-22T08:13:43.685Z,8080.00
2022-08-22T08:14:41.608Z,8052.00
2022-08-22T08:15:41.603Z,9100.00
2022-08-22T08:16:41.617Z,9136.00
2022-08-22T08:17:41.623Z,9280.00
2022-08-22T08:18:41.578Z,9560.00
2022-08-22T08:19:41.654Z,9336.00
2022-08-22T08:20:41.594Z,7128.00
2022-08-22T08:21:41.637Z,7564.00
2022-08-22T08:22:41.584Z,7824.00
2022-08-22T08:23:41.590Z,7644.00
2022-08-22T08:24:42.594Z,7044.00
2022-08-22T08:25:41.620Z,7572.00
2022-08-22T08:26:41.628Z,6796.00
2022-08-22T08:27:41.639Z,7232.00
2022-08-22T08:28:41.644Z,5820.00
2022-08-22T08:29:41.611Z,5652.00
2022-08-22T08:30:41.634Z,5568.00
2022-08-22T08:31:43.097Z,5072.00
2022-08-22T08:32:41.705Z,4780.00
2022-08-22T08:33:41.696Z,4648.00
2022-08-22T08:34:41.697Z,4604.00
2022-08-22T08:36:01.866Z,4544.00
2022-08-22T08:36:41.671Z,4528.00
2022-08-22T08:37:41.672Z,4596.00
2022-08-22T08:38:41.679Z,4888.00
2022-08-22T08:39:41.739Z,5388.00
2022-08-22T08:40:41.700Z,6700.00
2022-08-22T08:41:41.724Z,6788.00
2022-08-22T08:42:41.718Z,7764.00
2022-08-22T08:43:41.731Z,9112.00
2022-08-22T08:44:41.681Z,9880.00
2022-08-22T08:45:41.709Z,11132.00
2022-08-22T08:46:41.688Z,12200.00
2022-08-22T08:47:41.715Z,12288.00
2022-08-22T08:48:41.677Z,12524.00
2022-08-22T08:49:42.947Z,14032.00
2022-08-22T08:50:43.175Z,13848.00
2022-08-22T08:51:41.682Z,15072.00
2022-08-22T08:52:41.682Z,16064.00
2022-08-22T08:53:43.229Z,18592.00
2022-08-22T08:54:41.698Z,22144.00
2022-08-22T08:55:41.713Z,23456.00
2022-08-22T08:56:44.945Z,22912.00
2022-08-22T08:57:41.723Z,17664.00
2022-08-22T08:58:41.706Z,19264.00
2022-08-22T08:59:44.223Z,21344.00
2022-08-22T09:00:41.716Z,20992.00
2022-08-22T09:01:41.834Z,23456.00
2022-08-22T09:02:42.567Z,23232.00
2022-08-22T09:03:41.822Z,24032.00
2022-08-22T09:04:41.790Z,24640.00
2022-08-22T09:05:41.780Z,29600.00
2022-08-22T09:07:41.775Z,29280.00
2022-08-22T09:08:41.820Z,30048.00
2022-08-22T09:09:41.763Z,28416.00
2022-08-22T09:10:41.792Z,28224.00
2022-08-22T09:11:41.837Z,27360.00
2022-08-22T09:12:55.970Z,26496.00
2022-08-22T09:13:41.815Z,23008.00
2022-08-22T09:14:41.804Z,22496.00
2022-08-22T09:15:41.821Z,25984.00
2022-08-22T09:16:46.288Z,29120.00
2022-08-22T09:17:41.841Z,31200.00
2022-08-22T09:18:41.819Z,31584.00
2022-08-22T09:19:41.869Z,31008.00
2022-08-22T09:20:41.886Z,31520.00
2022-08-22T09:21:41.853Z,31584.00
2022-08-22T09:22:50.105Z,28832.00
2022-08-22T09:23:41.854Z,33184.00
2022-08-22T09:24:41.875Z,34752.00
2022-08-22T09:25:41.893Z,34656.00
2022-08-22T09:26:41.887Z,32960.00
2022-08-22T09:27:41.905Z,33152.00
2022-08-22T09:28:41.894Z,27968.00
2022-08-22T09:29:51.384Z,31360.00
2022-08-22T09:30:41.939Z,34112.00
2022-08-22T09:31:51.502Z,37248.00
2022-08-22T09:32:41.936Z,37760.00
2022-08-22T09:33:41.964Z,37696.00
2022-08-22T09:34:41.950Z,36384.00
2022-08-22T09:35:41.963Z,34880.00
2022-08-22T09:36:41.960Z,34976.00
2022-08-22T09:37:41.961Z,33632.00
2022-08-22T09:38:47.832Z,27616.00
2022-08-22T09:39:41.987Z,34016.00
2022-08-22T09:40:42.007Z,36288.00
2022-08-22T09:41:41.984Z,38464.00
2022-08-22T09:42:44.818Z,38048.00
2022-08-22T09:43:45.163Z,32896.00
2022-08-22T09:44:41.993Z,40576.00
2022-08-22T09:45:42.893Z,39072.00
2022-08-22T09:46:42.066Z,37344.00
2022-08-22T09:47:42.063Z,24672.00
2022-08-22T09:48:42.542Z,21088.00
2022-08-22T09:49:42.038Z,30048.00
2022-08-22T09:50:42.047Z,30720.00
2022-08-22T09:51:42.118Z,37568.00
2022-08-22T09:52:42.063Z,34912.00
2022-08-22T09:53:42.135Z,29280.00
2022-08-22T09:54:42.100Z,31264.00
2022-08-22T09:55:42.125Z,25440.00
2022-08-22T09:56:42.138Z,19072.00
2022-08-22T09:57:42.128Z,17792.00
2022-08-22T09:58:42.128Z,16512.00
2022-08-22T09:59:42.165Z,11016.00
2022-08-22T10:00:42.198Z,8832.00
2022-08-22T10:01:42.362Z,8636.00
2022-08-22T10:02:43.272Z,7756.00
2022-08-22T10:03:42.183Z,6980.00
2022-08-22T10:04:42.212Z,6880.00
2022-08-22T10:05:44.415Z,6660.00
2022-08-22T10:06:42.193Z,6392.00
2022-08-22T10:07:42.193Z,6872.00
2022-08-22T10:08:42.227Z,6688.00
2022-08-22T10:09:42.235Z,6544.00
2022-08-22T10:10:42.248Z,6452.00
2022-08-22T10:11:42.456Z,6356.00
2022-08-22T10:12:42.264Z,6372.00
2022-08-22T10:13:42.280Z,6532.00
2022-08-22T10:14:42.249Z,6632.00
2022-08-22T10:15:42.308Z,7060.00
2022-08-22T10:16:42.301Z,8116.00
2022-08-22T10:17:42.264Z,9564.00
2022-08-22T10:18:52.470Z,13920.00
2022-08-22T10:19:42.290Z,12888.00
2022-08-22T10:20:42.311Z,15328.00
2022-08-22T10:21:42.295Z,12244.00
2022-08-22T10:22:42.319Z,15484.00
2022-08-22T10:23:42.354Z,14608.00
2022-08-22T10:24:43.940Z,15320.00
2022-08-22T10:25:42.441Z,11832.00
2022-08-22T10:26:42.363Z,15820.00
2022-08-22T10:27:42.331Z,12124.00
2022-08-22T10:28:42.364Z,18048.00
2022-08-22T10:29:42.387Z,35968.00
2022-08-22T10:30:42.347Z,33504.00
2022-08-22T10:31:58.541Z,18368.00
2022-08-22T10:32:42.860Z,16256.00
2022-08-22T10:33:42.407Z,10656.00
2022-08-22T10:34:42.385Z,9528.00
2022-08-22T10:35:42.398Z,9952.00
2022-08-22T10:36:42.394Z,9100.00
2022-08-22T10:37:46.171Z,12844.00
2022-08-22T10:38:44.172Z,10360.00
2022-08-22T10:39:43.955Z,7696.00
2022-08-22T10:40:42.430Z,6896.00
2022-08-22T10:41:42.423Z,9196.00
2022-08-22T10:42:42.452Z,13344.00
2022-08-22T10:43:42.430Z,19456.00
2022-08-22T10:44:42.439Z,20672.00
2022-08-22T10:45:42.483Z,17696.00
2022-08-22T10:46:42.474Z,7708.00
2022-08-22T10:47:42.519Z,6984.00
2022-08-22T10:48:42.504Z,6600.00
2022-08-22T10:49:42.471Z,6312.00
2022-08-22T10:50:42.932Z,6172.00
2022-08-22T10:51:42.538Z,6036.00
2022-08-22T10:52:42.498Z,6104.00
2022-08-22T10:53:42.536Z,7008.00
2022-08-22T10:54:42.511Z,7564.00
2022-08-22T10:55:42.583Z,15568.00
2022-08-22T10:56:43.760Z,20704.00
2022-08-22T10:57:42.563Z,22080.00
2022-08-22T10:58:44.058Z,15800.00
2022-08-22T10:59:42.555Z,10568.00
2022-08-22T11:00:46.171Z,12236.00
2022-08-22T11:01:42.602Z,11572.00
2022-08-22T11:02:44.993Z,10528.00
2022-08-22T11:03:42.629Z,10904.00
2022-08-22T11:04:42.601Z,11484.00
2022-08-22T11:05:42.678Z,9828.00
2022-08-22T11:06:44.815Z,9412.00
2022-08-22T11:07:42.625Z,9840.00
2022-08-22T11:08:42.596Z,9572.00
2022-08-22T11:09:42.623Z,10136.00
2022-08-22T11:10:42.636Z,11612.00
2022-08-22T11:11:42.639Z,14676.00
2022-08-22T11:12:42.641Z,11568.00
2022-08-22T11:13:43.514Z,20672.00
2022-08-22T11:14:42.684Z,23616.00
2022-08-22T11:15:42.678Z,18528.00
2022-08-22T11:16:42.671Z,9848.00
2022-08-22T11:17:46.343Z,7980.00
2022-08-22T11:18:42.662Z,8672.00
2022-08-22T11:19:42.696Z,8992.00
2022-08-22T11:20:42.718Z,7972.00
2022-08-22T11:21:42.740Z,9944.00
2022-08-22T11:22:42.704Z,7996.00
2022-08-22T11:23:42.741Z,7164.00
2022-08-22T11:24:55.817Z,7552.00
2022-08-22T11:25:42.738Z,9624.00
2022-08-22T11:26:46.824Z,7932.00
2022-08-22T11:27:42.739Z,10212.00
2022-08-22T11:28:42.727Z,12368.00
2022-08-22T11:29:44.213Z,12400.00
2022-08-22T11:30:45.231Z,7952.00
2022-08-22T11:31:47.350Z,7784.00
2022-08-22T11:32:42.788Z,7248.00
2022-08-22T11:33:47.463Z,7412.00
2022-08-22T11:34:42.763Z,7200.00
2022-08-22T11:35:42.759Z,6636.00
2022-08-22T11:36:42.781Z,5944.00
2022-08-22T11:37:43.766Z,5768.00
2022-08-22T11:38:42.780Z,5876.00
2022-08-22T11:39:42.850Z,5952.00
2022-08-22T11:40:42.866Z,5764.00
2022-08-22T11:41:42.798Z,5440.00
2022-08-22T11:42:59.088Z,4916.00
2022-08-22T11:43:42.832Z,4440.00
2022-08-22T11:44:50.212Z,4172.00
2022-08-22T11:45:42.827Z,3836.00
2022-08-22T11:46:42.838Z,3804.00
2022-08-22T11:47:42.882Z,3864.00
2022-08-22T11:48:42.878Z,4064.00
2022-08-22T11:49:42.882Z,4312.00
2022-08-22T11:50:42.878Z,4372.00
2022-08-22T11:51:42.898Z,4184.00
2022-08-22T11:52:42.900Z,3772.00
2022-08-22T11:53:42.899Z,3420.00
2022-08-22T11:54:42.924Z,3132.00
2022-08-22T11:55:42.890Z,2940.00
2022-08-22T11:56:42.906Z,2936.00
2022-08-22T11:57:44.975Z,2900.00
2022-08-22T12:00:16.622Z,2580.00
2022-08-22T12:01:17.423Z,2492.00
2022-08-22T12:03:10.411Z,2368.00
2022-08-22T12:04:10.411Z,2340.00
2022-08-22T12:06:04.510Z,2232.00
2022-08-22T12:07:04.504Z,1984.00
2022-08-22T12:08:58.653Z,1700.00
2022-08-22T12:09:58.678Z,1788.00
2022-08-22T12:11:52.444Z,1956.00
2022-08-22T12:12:52.458Z,2012.00
2022-08-22T12:14:46.557Z,2300.00
2022-08-22T12:15:46.553Z,2356.00
2022-08-22T12:17:55.364Z,2224.00
2022-08-22T12:18:40.359Z,2476.00
2022-08-22T12:20:34.290Z,3196.00
2022-08-22T12:21:34.288Z,3168.00
2022-08-22T12:23:49.429Z,3184.00
2022-08-22T12:24:28.427Z,3152.00
2022-08-22T12:26:22.358Z,2976.00
2022-08-22T12:27:28.751Z,2972.00
2022-08-22T12:29:16.966Z,2980.00
2022-08-22T12:30:16.554Z,2916.00
2022-08-22T12:32:10.685Z,2804.00
2022-08-22T12:33:10.686Z,2748.00
2022-08-22T12:35:13.776Z,2572.00